x

Venice, Fl (venf1) Weather Station

8:00am - Fri 1st Aug 2014 All times are EDT. -4 hours from GMT.

  • Wind
    6mph, 7mph gusts
  • Sea Temp 89°f
  • Air Temp 80°f
  • Sea Pressure 1014.8mb
  • Venice, Fl
  • Venice, Fl

More Historic Weather Station data

Upgrade to MSW Pro to gain access to the past 30 days of data for over 8000 Wavebouys and Weather Stations around the globe.

Join Pro

Comparision Forecast

View Surf forecast
   
Fri 08/01 8:00am 6 7 mph 1014.8mb 89f 80f
7:00am 6
mph
1014.5mb 89f 78f
6:00am 5 6 mph 1014mb 89f 79f
5:00am 5 6 mph 1013.6mb 89f 79f
4:00am 3 5 mph 1013.8mb 89f 80f
3:00am 6
mph
1013.9mb 89f 81f
2:00am 5
mph
1014.6mb 89f 81f
1:00am 3
mph
1015.1mb 89f 82f
12:00am 5 6 mph 1015.3mb 89f 83f
Thu 07/31 11:00pm 6 7 mph 1015.4mb 89f 83f
10:00pm 7 8 mph 1014.8mb 89f 84f
9:00pm 13 14 mph 1014.5mb 89f 85f
8:00pm 10 11 mph 1014.7mb 89f 85f
7:00pm 11 13 mph 1014.6mb 90f 86f
6:00pm 16 17 mph 1013.9mb 90f 85f
5:00pm 9 11 mph 1014.4mb 90f 85f
4:00pm 11 14 mph 1014.5mb 90f 85f
3:00pm 13
mph
1014.8mb 90f 85f
2:00pm 9 10 mph 1015.2mb 89f 85f
1:00pm 8 9 mph 1015.5mb 89f 85f
12:00pm 7 8 mph 1015.8mb 89f 85f
11:00am 5 6 mph 1015.7mb 88f 84f
10:00am 5 7 mph 1015.7mb 88f 84f
9:00am 3 5 mph 1015.2mb 88f 82f
8:00am 2
mph
1015mb 88f 79f
7:00am 5 6 mph 1014.5mb 88f 77f
6:00am 6
mph
1013.9mb 88f 78f
5:00am 3 5 mph 1013.7mb 88f 79f
4:00am 5 6 mph 1014.1mb 88f 80f
3:00am 5 6 mph 1014.6mb 89f 80f
2:00am 6 7 mph 1014.9mb 89f 80f
1:00am 7 8 mph 1014.9mb 89f 82f
12:00am 9 10 mph 1015mb 89f 83f
Wed 07/30 11:00pm 7 8 mph 1014.7mb 89f 84f
10:00pm 9 10 mph 1014.7mb 90f 85f
9:00pm 6 7 mph 1014.5mb 90f 85f
8:00pm 10
mph
1014mb 90f 86f
7:00pm 11 14 mph 1013.7mb 90f 86f
6:00pm 13 14 mph 1013.5mb 90f 87f
5:00pm 11 15 mph 1013.4mb 90f 87f
4:00pm 11 13 mph 1013.6mb 90f 87f
3:00pm 9 10 mph 1014.2mb 90f 86f
2:00pm 7 8 mph 1014.7mb 89f 86f
1:00pm 5 6 mph 1015.1mb 89f 85f
12:00pm 6 7 mph 1015.4mb 89f 86f
11:00am 5
mph
1015.4mb 88f 85f
10:00am 3
mph
1015.1mb 88f 85f
9:00am  -  1 mph 1014.9mb 88f 82f
8:00am 3 5 mph 1014.7mb 88f 80f
7:00am 5 6 mph 1014.5mb 88f 79f
6:00am 6 7 mph 1014mb 88f 82f
5:00am 14 15 mph 1013.8mb 88f 85f
4:00am 11 14 mph 1013.7mb 88f 85f
3:00am 11 13 mph 1014mb 88f 85f
2:00am 15 16 mph 1014.6mb 89f 85f
1:00am 15 16 mph 1014.8mb 89f 85f
12:00am 13 16 mph 1014.7mb 89f 85f
Tue 07/29 11:00pm 11 15 mph 1014.6mb 89f 85f
10:00pm 14 15 mph 1014.6mb 89f 85f
9:00pm 9 11 mph 1014.7mb 89f 85f
8:00pm 13 15 mph 1014.4mb 89f 85f
7:00pm 16 18 mph 1014.1mb 89f 85f
6:00pm 18 21 mph 1014.3mb 89f 86f
5:00pm 20 24 mph 1014.4mb 89f 86f
4:00pm 18 21 mph 1014.3mb 89f 82f
3:00pm 15 18 mph 1015mb 89f 85f
2:00pm 17 18 mph 1015.4mb 90f 86f
1:00pm 17 18 mph 1015.4mb 89f 87f
12:00pm 15 17 mph 1015.6mb 89f 86f
11:00am 18 20 mph 1015.9mb 89f 87f
10:00am 17 20 mph 1015.6mb 89f 86f
9:00am 17 18 mph 1014.9mb 89f 85f
8:00am 20 22 mph 1014.8mb 89f 87f
7:00am 16 17 mph 1014.4mb 89f 86f
6:00am 20 22 mph 1014mb 89f 86f
5:00am 20 22 mph 1014.1mb 89f 86f
4:00am 18 21 mph 1014.3mb 90f 86f
3:00am 20 22 mph 1014.9mb 90f 85f
2:00am 14 16 mph 1015.6mb 90f 86f
1:00am 14 16 mph 1016mb 90f 86f
12:00am 14 16 mph 1016.3mb 90f 86f
Mon 07/28 11:00pm 13 15 mph 1016.3mb 90f 86f
10:00pm 14 16 mph 1016.3mb 91f 86f
9:00pm 14 16 mph 1016mb 91f 86f
8:00pm 14 15 mph 1015.8mb 91f 87f
7:00pm 14 17 mph 1015.7mb 91f 87f
6:00pm 14 15 mph 1016.2mb 91f 87f
5:00pm 15 16 mph 1016.4mb 91f 87f
4:00pm 15 17 mph 1016.9mb 91f 87f
3:00pm 16 17 mph 1017.3mb 91f 87f
2:00pm 11 13 mph 1017.9mb 91f 86f